Time;durP1;ratioP1;P1;durP2;ratioP2;P2;SDS_P1;SDS_P2;PMS_P1;PMS_P2;Temp;Humidity;BMP_temperature;BMP_pressure;BME280_temperature;BME280_humidity;BME280_pressure;Samples;Min_cycle;Max_cycle;Signal;HPM_P1;HPM_P2
2022/03/04 00:00:43;;;;;;;;;;;18.80;99.90;;;;;;5040754;28;19947;-60
2022/03/04 00:03:11;;;;;;;;;;;18.80;99.90;;;;;;5035091;28;19941;-57
2022/03/04 00:05:39;;;;;;;;;;;18.80;99.90;;;;;;5043354;28;19928;-60
2022/03/04 00:08:06;;;;;;;;;;;18.80;99.90;;;;;;5041918;28;19926;-57
2022/03/04 00:10:34;;;;;;;;;;;18.80;99.90;;;;;;5046286;28;19948;-58
2022/03/04 00:13:01;;;;;;;;;;;18.80;99.90;;;;;;5044049;28;20305;-59
2022/03/04 00:15:29;;;;;;;;;;;18.70;99.90;;;;;;5044836;28;19928;-58
2022/03/04 00:17:56;;;;;;;;;;;18.70;99.90;;;;;;5033772;28;19929;-61
2022/03/04 00:20:23;;;;;;;;;;;18.70;99.90;;;;;;5046170;28;19929;-59
2022/03/04 00:22:50;;;;;;;;;;;18.70;99.90;;;;;;5042264;28;19929;-60
2022/03/04 00:25:19;;;;;;;;;;;18.70;99.90;;;;;;5047483;28;19931;-60
2022/03/04 00:27:46;;;;;;;;;;;18.70;99.90;;;;;;5044231;28;21424;-60
2022/03/04 00:30:14;;;;;;;;;;;18.70;99.90;;;;;;5045454;28;19935;-59
2022/03/04 00:32:41;;;;;;;;;;;18.70;99.90;;;;;;5045690;28;19929;-58
2022/03/04 00:35:08;;;;;;;;;;;18.70;99.90;;;;;;5044294;28;19929;-60
2022/03/04 00:37:35;;;;;;;;;;;18.70;99.90;;;;;;5037904;28;19940;-60
2022/03/04 00:40:03;;;;;;;;;;;18.70;99.90;;;;;;5042246;28;19924;-60
2022/03/04 00:42:31;;;;;;;;;;;18.70;99.90;;;;;;5045210;28;20916;-60
2022/03/04 00:44:58;;;;;;;;;;;18.60;99.90;;;;;;5042447;28;19924;-62
2022/03/04 00:47:25;;;;;;;;;;;18.60;99.90;;;;;;5035080;28;19933;-61
2022/03/04 00:49:52;;;;;;;;;;;18.60;99.90;;;;;;5035806;28;20286;-59
2022/03/04 00:52:19;;;;;;;;;;;18.60;99.90;;;;;;5042526;28;19929;-58
2022/03/04 00:54:46;;;;;;;;;;;18.60;99.90;;;;;;5046029;28;19936;-58
2022/03/04 00:57:14;;;;;;;;;;;18.60;99.90;;;;;;5045482;28;19929;-58
2022/03/04 00:59:41;;;;;;;;;;;18.60;99.90;;;;;;5043873;28;19939;-59
2022/03/04 01:02:08;;;;;;;;;;;18.60;99.90;;;;;;5044523;28;20324;-59
2022/03/04 01:04:35;;;;;;;;;;;18.60;99.90;;;;;;5045098;28;19933;-59
2022/03/04 01:07:03;;;;;;;;;;;18.60;99.90;;;;;;5042055;28;19932;-61
2022/03/04 01:09:30;;;;;;;;;;;18.50;99.90;;;;;;5041400;28;19929;-61
2022/03/04 01:11:57;;;;;;;;;;;18.60;99.90;;;;;;5037237;28;19929;-60
2022/03/04 01:14:25;;;;;;;;;;;18.60;99.90;;;;;;5044400;28;19929;-59
2022/03/04 01:16:52;;;;;;;;;;;18.60;99.90;;;;;;5044462;28;19988;-58
2022/03/04 01:19:19;;;;;;;;;;;18.50;99.90;;;;;;5041608;28;19928;-58
2022/03/04 01:21:46;;;;;;;;;;;18.50;99.90;;;;;;5030323;28;20032;-62
2022/03/04 01:24:13;;;;;;;;;;;18.50;99.90;;;;;;5041814;28;19929;-60
2022/03/04 01:26:41;;;;;;;;;;;18.50;99.90;;;;;;5048331;28;19935;-57
2022/03/04 01:29:08;;;;;;;;;;;18.50;99.90;;;;;;5039329;28;20316;-58
2022/03/04 01:31:35;;;;;;;;;;;18.50;99.90;;;;;;5042921;28;20327;-60
2022/03/04 01:34:02;;;;;;;;;;;18.50;99.90;;;;;;5038229;28;20339;-59
2022/03/04 01:36:33;;;;;;;;;;;18.50;99.90;;;;;;5046165;28;19929;-62
2022/03/04 01:39:00;;;;;;;;;;;18.50;99.90;;;;;;5054058;28;19929;-58
2022/03/04 01:41:28;;;;;;;;;;;18.40;99.90;;;;;;5040180;28;19948;-56
2022/03/04 01:43:55;;;;;;;;;;;18.40;99.90;;;;;;5049844;28;19951;-63
2022/03/04 01:46:28;;;;;;;;;;;18.40;99.90;;;;;;5040133;28;19948;-60
2022/03/04 01:48:56;;;;;;;;;;;18.40;99.90;;;;;;5043437;28;19939;-62
2022/03/04 01:51:23;;;;;;;;;;;18.40;99.90;;;;;;5041341;28;19928;-58
2022/03/04 01:53:51;;;;;;;;;;;18.40;99.90;;;;;;5031018;28;19937;-60
2022/03/04 01:56:19;;;;;;;;;;;18.40;99.90;;;;;;5042315;28;19925;-57
2022/03/04 01:58:46;;;;;;;;;;;18.40;99.90;;;;;;5033186;28;19925;-57
2022/03/04 02:01:13;;;;;;;;;;;18.40;99.90;;;;;;5043075;28;19925;-57
2022/03/04 02:03:41;;;;;;;;;;;18.40;99.90;;;;;;5028031;28;19929;-59
2022/03/04 02:06:08;;;;;;;;;;;18.40;99.90;;;;;;5043466;28;19939;-60
2022/03/04 02:08:36;;;;;;;;;;;18.30;99.90;;;;;;5028803;28;19933;-58
2022/03/04 02:11:04;;;;;;;;;;;18.30;99.90;;;;;;5036285;28;20406;-58
2022/03/04 02:13:31;;;;;;;;;;;18.30;99.90;;;;;;5029897;28;19925;-61
2022/03/04 02:15:58;;;;;;;;;;;18.30;99.90;;;;;;5040539;28;19940;-59
2022/03/04 02:18:25;;;;;;;;;;;18.30;99.90;;;;;;5036664;28;19956;-58
2022/03/04 02:20:53;;;;;;;;;;;18.30;99.90;;;;;;5037388;28;20384;-59
2022/03/04 02:23:21;;;;;;;;;;;18.30;99.90;;;;;;5037004;28;20055;-60
2022/03/04 02:25:50;;;;;;;;;;;18.30;99.90;;;;;;5040292;28;19941;-60
2022/03/04 02:28:18;;;;;;;;;;;18.30;99.90;;;;;;5033546;28;19936;-60
2022/03/04 02:30:45;;;;;;;;;;;18.30;99.90;;;;;;5034280;28;20307;-58
2022/03/04 02:33:13;;;;;;;;;;;18.30;99.90;;;;;;5036900;28;20407;-58
2022/03/04 02:35:40;;;;;;;;;;;18.30;99.90;;;;;;5042383;28;20432;-61
2022/03/04 02:38:08;;;;;;;;;;;18.30;99.90;;;;;;5036299;28;19948;-59
2022/03/04 02:40:35;;;;;;;;;;;18.20;99.90;;;;;;5027838;28;20158;-60
2022/03/04 02:43:03;;;;;;;;;;;18.20;99.90;;;;;;5043943;28;19929;-58
2022/03/04 02:45:30;;;;;;;;;;;18.20;99.90;;;;;;5034804;28;20332;-61
2022/03/04 02:47:58;;;;;;;;;;;18.20;99.90;;;;;;5044095;28;19929;-59
2022/03/04 02:50:25;;;;;;;;;;;18.20;99.90;;;;;;5025836;28;20392;-58
2022/03/04 02:52:52;;;;;;;;;;;18.20;99.90;;;;;;5040595;28;20393;-59
2022/03/04 02:55:19;;;;;;;;;;;18.10;99.90;;;;;;5035856;28;20428;-58
2022/03/04 02:57:46;;;;;;;;;;;18.20;99.90;;;;;;5044532;28;20403;-60
2022/03/04 03:00:15;;;;;;;;;;;18.20;99.90;;;;;;5039267;28;19929;-59
2022/03/04 03:02:43;;;;;;;;;;;18.20;99.90;;;;;;5044007;28;20290;-59
2022/03/04 03:05:11;;;;;;;;;;;18.20;99.90;;;;;;5035626;28;19929;-58
2022/03/04 03:07:39;;;;;;;;;;;18.10;99.90;;;;;;5033980;28;19943;-59
2022/03/04 03:10:06;;;;;;;;;;;18.10;99.90;;;;;;5034750;28;19925;-59
2022/03/04 03:12:34;;;;;;;;;;;18.10;99.90;;;;;;5032807;28;19932;-58
2022/03/04 03:15:01;;;;;;;;;;;18.10;99.90;;;;;;5041670;28;19971;-61
2022/03/04 03:17:28;;;;;;;;;;;18.10;99.90;;;;;;5052396;28;20285;-59
2022/03/04 03:19:55;;;;;;;;;;;18.10;99.90;;;;;;5041219;28;19932;-57
2022/03/04 03:22:22;;;;;;;;;;;18.10;99.90;;;;;;5038596;28;20243;-59
2022/03/04 03:24:49;;;;;;;;;;;18.10;99.90;;;;;;5048776;28;19948;-57
2022/03/04 03:27:16;;;;;;;;;;;18.10;99.90;;;;;;5047218;28;19932;-58
2022/03/04 03:29:44;;;;;;;;;;;18.10;99.90;;;;;;5047359;28;19928;-58
2022/03/04 03:32:11;;;;;;;;;;;18.10;99.90;;;;;;5038722;28;20348;-59
2022/03/04 03:34:39;;;;;;;;;;;18.00;99.90;;;;;;5035595;28;20365;-58
2022/03/04 03:37:07;;;;;;;;;;;18.10;99.90;;;;;;5041518;28;19932;-59
2022/03/04 03:39:34;;;;;;;;;;;18.10;99.90;;;;;;5047190;28;19929;-60
2022/03/04 03:42:01;;;;;;;;;;;18.00;99.90;;;;;;5041908;28;19932;-59
2022/03/04 03:44:28;;;;;;;;;;;18.00;99.90;;;;;;5041578;28;19929;-59
2022/03/04 03:46:56;;;;;;;;;;;18.00;99.90;;;;;;5041347;28;19928;-58
2022/03/04 03:49:23;;;;;;;;;;;18.00;99.90;;;;;;5043195;28;19929;-59
2022/03/04 03:51:50;;;;;;;;;;;18.00;99.90;;;;;;5043243;28;19929;-59
2022/03/04 03:54:17;;;;;;;;;;;18.00;99.90;;;;;;5045717;28;19928;-60
2022/03/04 03:56:44;;;;;;;;;;;18.00;99.90;;;;;;5038329;28;19929;-58
2022/03/04 03:59:12;;;;;;;;;;;17.90;99.90;;;;;;5032137;28;19929;-58
2022/03/04 04:01:39;;;;;;;;;;;17.90;99.90;;;;;;5045714;28;19929;-62
2022/03/04 04:04:17;;;;;;;;;;;17.90;99.90;;;;;;5045430;28;19928;-60
2022/03/04 04:06:44;;;;;;;;;;;17.90;99.90;;;;;;5044737;28;21021;-58
2022/03/04 04:09:11;;;;;;;;;;;18.00;99.90;;;;;;5045920;28;19929;-61
2022/03/04 04:11:39;;;;;;;;;;;18.00;99.90;;;;;;5046851;28;19929;-60
2022/03/04 04:14:07;;;;;;;;;;;18.00;99.90;;;;;;5045423;28;19948;-59
2022/03/04 04:16:34;;;;;;;;;;;18.00;99.90;;;;;;5043207;28;20328;-60
2022/03/04 04:19:02;;;;;;;;;;;18.00;99.90;;;;;;5045351;28;19929;-58
2022/03/04 04:21:29;;;;;;;;;;;17.90;99.90;;;;;;5047816;28;19936;-61
2022/03/04 04:23:56;;;;;;;;;;;17.90;99.90;;;;;;5043016;28;20463;-59
2022/03/04 04:26:23;;;;;;;;;;;17.90;99.90;;;;;;5046257;28;20193;-58
2022/03/04 04:28:51;;;;;;;;;;;17.90;99.90;;;;;;5040923;28;19952;-61
2022/03/04 04:31:18;;;;;;;;;;;17.90;99.90;;;;;;5045958;28;20296;-58
2022/03/04 04:33:45;;;;;;;;;;;17.90;99.90;;;;;;5044010;28;19928;-59
2022/03/04 04:36:13;;;;;;;;;;;17.90;99.90;;;;;;5044236;28;20308;-58
2022/03/04 04:38:40;;;;;;;;;;;17.80;99.90;;;;;;5045617;28;19929;-59
2022/03/04 04:41:07;;;;;;;;;;;17.80;99.90;;;;;;5044219;28;19932;-59
2022/03/04 04:43:35;;;;;;;;;;;17.90;99.90;;;;;;5046214;28;19936;-61
2022/03/04 04:46:02;;;;;;;;;;;17.80;99.90;;;;;;5047010;28;19929;-60
2022/03/04 04:48:30;;;;;;;;;;;17.90;99.90;;;;;;5043130;28;19940;-62
2022/03/04 04:50:59;;;;;;;;;;;17.80;99.90;;;;;;5044968;28;19939;-59
2022/03/04 04:53:26;;;;;;;;;;;17.90;99.90;;;;;;5043536;28;20854;-59
2022/03/04 04:55:54;;;;;;;;;;;17.90;99.90;;;;;;5041996;28;19925;-59
2022/03/04 04:58:21;;;;;;;;;;;18.00;99.90;;;;;;5047033;28;19925;-58
2022/03/04 05:00:53;;;;;;;;;;;18.10;99.90;;;;;;5040127;28;20325;-57
2022/03/04 05:03:24;;;;;;;;;;;18.30;99.90;;;;;;5036734;28;19952;-61
2022/03/04 05:05:52;;;;;;;;;;;18.40;99.90;;;;;;5043825;28;20411;-60
2022/03/04 05:08:19;;;;;;;;;;;18.50;99.90;;;;;;5042404;28;19928;-59
2022/03/04 05:10:46;;;;;;;;;;;18.70;99.90;;;;;;5077695;28;19925;-60
2022/03/04 05:13:14;;;;;;;;;;;18.80;99.90;;;;;;5040797;28;20316;-62
2022/03/04 05:15:42;;;;;;;;;;;19.00;99.90;;;;;;5042338;28;20245;-68
2022/03/04 05:18:09;;;;;;;;;;;19.10;99.90;;;;;;5046311;28;19925;-64
2022/03/04 05:20:37;;;;;;;;;;;19.30;99.90;;;;;;5051070;28;19925;-63
2022/03/04 05:23:04;;;;;;;;;;;19.40;99.90;;;;;;5041117;28;19928;-62
2022/03/04 05:25:31;;;;;;;;;;;19.60;99.90;;;;;;5049714;28;19928;-61
2022/03/04 05:27:58;;;;;;;;;;;19.70;99.90;;;;;;5050247;28;19940;-67
2022/03/04 05:30:26;;;;;;;;;;;19.90;99.90;;;;;;5049389;28;20387;-66
2022/03/04 05:32:53;;;;;;;;;;;20.00;99.90;;;;;;5045117;28;19929;-61
2022/03/04 05:35:20;;;;;;;;;;;20.20;99.90;;;;;;5048576;28;20020;-60
2022/03/04 05:37:47;;;;;;;;;;;20.30;99.90;;;;;;5056861;28;19944;-62
2022/03/04 05:40:14;;;;;;;;;;;20.40;99.90;;;;;;5047494;28;20293;-63
2022/03/04 05:42:41;;;;;;;;;;;20.60;99.90;;;;;;5056860;28;19925;-64
2022/03/04 05:45:09;;;;;;;;;;;20.70;99.90;;;;;;5043648;28;19933;-64
2022/03/04 05:47:36;;;;;;;;;;;20.90;99.90;;;;;;5046728;28;20411;-63
2022/03/04 05:50:03;;;;;;;;;;;21.00;99.90;;;;;;5046428;28;20834;-62
2022/03/04 05:52:30;;;;;;;;;;;21.10;99.90;;;;;;5046151;28;19928;-63
2022/03/04 05:54:57;;;;;;;;;;;21.20;99.90;;;;;;5043665;28;19940;-63
2022/03/04 05:57:24;;;;;;;;;;;21.30;99.90;;;;;;5042943;28;19943;-64
2022/03/04 05:59:51;;;;;;;;;;;21.30;99.90;;;;;;5037744;28;19940;-62
2022/03/04 06:02:18;;;;;;;;;;;21.40;99.90;;;;;;5047598;28;20214;-61
2022/03/04 06:04:46;;;;;;;;;;;21.40;99.90;;;;;;5041899;28;19932;-60
2022/03/04 06:07:13;;;;;;;;;;;21.30;99.90;;;;;;5047096;28;19931;-61
2022/03/04 06:09:40;;;;;;;;;;;21.20;99.90;;;;;;5033807;28;20273;-61
2022/03/04 06:12:07;;;;;;;;;;;21.10;99.90;;;;;;5041040;28;20060;-58
2022/03/04 06:14:34;;;;;;;;;;;21.00;99.90;;;;;;5039281;28;20407;-57
2022/03/04 06:17:02;;;;;;;;;;;21.00;99.90;;;;;;5045968;28;20324;-59
2022/03/04 06:19:36;;;;;;;;;;;21.00;99.90;;;;;;5043419;28;19925;-56
2022/03/04 06:22:03;;;;;;;;;;;20.90;99.90;;;;;;5045033;28;19940;-57
2022/03/04 06:24:31;;;;;;;;;;;20.90;99.90;;;;;;5033439;28;19932;-58
2022/03/04 06:26:58;;;;;;;;;;;20.90;99.90;;;;;;5038968;28;19988;-60
2022/03/04 06:29:25;;;;;;;;;;;20.90;99.90;;;;;;5040415;28;20369;-62
2022/03/04 06:31:53;;;;;;;;;;;20.90;99.90;;;;;;5040961;28;19952;-61
2022/03/04 06:34:20;;;;;;;;;;;20.90;99.90;;;;;;5044749;28;19936;-63
2022/03/04 06:36:47;;;;;;;;;;;20.80;99.90;;;;;;5040800;28;19940;-62
2022/03/04 06:39:15;;;;;;;;;;;20.60;99.90;;;;;;5032346;28;19929;-66
2022/03/04 06:41:42;;;;;;;;;;;20.60;99.50;;;;;;5041295;28;19971;-63
2022/03/04 06:44:09;;;;;;;;;;;20.40;99.30;;;;;;5035593;28;19942;-62
2022/03/04 06:46:36;;;;;;;;;;;20.40;98.60;;;;;;5041222;28;20270;-62
2022/03/04 06:49:04;;;;;;;;;;;20.30;97.90;;;;;;5040336;28;20308;-61
2022/03/04 06:51:32;;;;;;;;;;;20.30;97.60;;;;;;5046164;28;19929;-61
2022/03/04 06:53:59;;;;;;;;;;;20.30;97.80;;;;;;5041315;28;19945;-63
2022/03/04 06:56:26;;;;;;;;;;;20.30;98.20;;;;;;5043096;28;19928;-63
2022/03/04 06:58:53;;;;;;;;;;;20.30;98.60;;;;;;5031782;28;19928;-62
2022/03/04 07:01:21;;;;;;;;;;;20.30;98.80;;;;;;5034375;28;19929;-62
2022/03/04 07:03:48;;;;;;;;;;;20.20;99.10;;;;;;5050408;28;19924;-59
2022/03/04 07:06:16;;;;;;;;;;;20.30;99.40;;;;;;5042482;28;19924;-62
2022/03/04 07:08:43;;;;;;;;;;;20.30;99.50;;;;;;5047254;28;19929;-62
2022/03/04 07:11:10;;;;;;;;;;;20.30;99.60;;;;;;5049008;28;19933;-63
2022/03/04 07:13:37;;;;;;;;;;;20.40;99.70;;;;;;5040732;28;20319;-62
2022/03/04 07:16:05;;;;;;;;;;;20.50;99.80;;;;;;5048158;28;19928;-62
2022/03/04 07:18:32;;;;;;;;;;;20.60;99.80;;;;;;5033913;28;20345;-63
2022/03/04 07:21:00;;;;;;;;;;;20.70;99.70;;;;;;5045160;28;20336;-63
2022/03/04 07:23:28;;;;;;;;;;;20.70;99.70;;;;;;5039974;28;20585;-61
2022/03/04 07:25:55;;;;;;;;;;;20.80;99.60;;;;;;5054233;28;19926;-64
2022/03/04 07:28:22;;;;;;;;;;;20.90;99.60;;;;;;5063148;28;19931;-64
2022/03/04 07:30:50;;;;;;;;;;;20.90;99.50;;;;;;5052151;28;19936;-63
2022/03/04 07:33:17;;;;;;;;;;;21.00;99.50;;;;;;5050097;28;19929;-62
2022/03/04 07:35:45;;;;;;;;;;;21.00;99.50;;;;;;5040350;28;19952;-59
2022/03/04 07:38:13;;;;;;;;;;;21.00;99.40;;;;;;5046759;28;19933;-59
2022/03/04 07:40:46;;;;;;;;;;;21.10;99.40;;;;;;5044194;28;19932;-62
2022/03/04 07:43:13;;;;;;;;;;;21.10;99.40;;;;;;5044827;28;19929;-63
2022/03/04 07:45:40;;;;;;;;;;;21.00;99.40;;;;;;5042719;28;19936;-63
2022/03/04 07:48:07;;;;;;;;;;;21.00;99.50;;;;;;5044678;28;19948;-64
2022/03/04 07:50:34;;;;;;;;;;;21.00;99.50;;;;;;5042099;28;20427;-63
2022/03/04 07:53:02;;;;;;;;;;;20.90;99.50;;;;;;5047008;28;20408;-63
2022/03/04 07:55:29;;;;;;;;;;;20.90;99.60;;;;;;5036482;28;19933;-63
2022/03/04 07:57:56;;;;;;;;;;;20.90;99.60;;;;;;5039033;28;20332;-62
2022/03/04 08:00:24;;;;;;;;;;;20.80;99.70;;;;;;5047142;28;19925;-65
2022/03/04 08:02:53;;;;;;;;;;;20.80;99.80;;;;;;5038701;28;20595;-62
2022/03/04 08:05:21;;;;;;;;;;;20.70;99.80;;;;;;5036456;28;19936;-63
2022/03/04 08:07:48;;;;;;;;;;;20.70;99.80;;;;;;5042847;28;19932;-62
2022/03/04 08:10:16;;;;;;;;;;;20.70;99.90;;;;;;5036878;28;19944;-60
2022/03/04 08:12:43;;;;;;;;;;;20.60;99.90;;;;;;5032331;28;19966;-61
2022/03/04 08:15:11;;;;;;;;;;;20.60;99.90;;;;;;5046714;28;20310;-62
2022/03/04 08:17:39;;;;;;;;;;;20.60;99.90;;;;;;5048205;28;19928;-64
2022/03/04 08:20:07;;;;;;;;;;;20.50;99.90;;;;;;5031926;28;19948;-63
2022/03/04 08:22:34;;;;;;;;;;;20.40;99.90;;;;;;5046663;28;19929;-63
2022/03/04 08:25:03;;;;;;;;;;;20.40;99.90;;;;;;5042625;28;19929;-60
2022/03/04 08:27:30;;;;;;;;;;;20.30;99.90;;;;;;5049491;28;19928;-60
2022/03/04 08:29:57;;;;;;;;;;;20.30;99.90;;;;;;5041231;28;19947;-60
2022/03/04 08:32:24;;;;;;;;;;;20.40;99.90;;;;;;5040891;28;19929;-64
2022/03/04 08:34:59;;;;;;;;;;;20.40;99.90;;;;;;5037617;28;19925;-63
2022/03/04 08:37:27;;;;;;;;;;;20.50;99.90;;;;;;5034790;28;19933;-62
2022/03/04 08:39:54;;;;;;;;;;;20.60;99.90;;;;;;5045528;28;19929;-61
2022/03/04 08:42:22;;;;;;;;;;;20.60;99.90;;;;;;5038339;28;20332;-63
2022/03/04 08:44:50;;;;;;;;;;;20.70;99.90;;;;;;5041346;28;19936;-63
2022/03/04 08:47:17;;;;;;;;;;;20.80;99.90;;;;;;5032196;28;19936;-62
2022/03/04 08:49:44;;;;;;;;;;;20.90;99.90;;;;;;5038605;28;20281;-62
2022/03/04 08:52:12;;;;;;;;;;;21.00;99.90;;;;;;5034567;28;19940;-64
2022/03/04 08:54:39;;;;;;;;;;;21.00;99.90;;;;;;5042776;28;19933;-64
2022/03/04 08:57:06;;;;;;;;;;;21.00;99.90;;;;;;5041760;28;19939;-63
2022/03/04 08:59:33;;;;;;;;;;;21.10;99.90;;;;;;5047380;28;19928;-63
2022/03/04 09:02:01;;;;;;;;;;;21.10;99.90;;;;;;5042851;28;19924;-61
2022/03/04 09:04:28;;;;;;;;;;;21.10;99.90;;;;;;5042727;28;19935;-62
2022/03/04 09:06:57;;;;;;;;;;;21.10;99.90;;;;;;5043056;28;19935;-63
2022/03/04 09:09:24;;;;;;;;;;;21.10;99.90;;;;;;5038762;28;19929;-64
2022/03/04 09:11:52;;;;;;;;;;;21.10;99.90;;;;;;5039173;28;19959;-63
2022/03/04 09:14:22;;;;;;;;;;;21.10;99.90;;;;;;5031530;28;19933;-63
2022/03/04 09:16:50;;;;;;;;;;;21.00;99.90;;;;;;5042223;28;19944;-64
2022/03/04 09:19:19;;;;;;;;;;;21.00;99.90;;;;;;5029371;28;19929;-61
2022/03/04 09:21:47;;;;;;;;;;;21.00;99.90;;;;;;5048946;28;19932;-62
2022/03/04 09:24:15;;;;;;;;;;;20.90;99.90;;;;;;5047887;28;20558;-64
2022/03/04 09:26:42;;;;;;;;;;;20.90;99.90;;;;;;5042958;28;19925;-63
2022/03/04 09:29:09;;;;;;;;;;;20.80;99.90;;;;;;5044255;28;19929;-63
2022/03/04 09:31:36;;;;;;;;;;;20.80;99.90;;;;;;5037436;28;19935;-64
2022/03/04 09:34:04;;;;;;;;;;;20.70;99.90;;;;;;5027625;28;20035;-64
2022/03/04 09:36:31;;;;;;;;;;;20.70;99.90;;;;;;5040755;28;20296;-62
2022/03/04 09:38:59;;;;;;;;;;;20.70;99.90;;;;;;5030680;28;20507;-61
2022/03/04 09:41:26;;;;;;;;;;;20.60;99.90;;;;;;5034742;28;19929;-60
2022/03/04 09:43:54;;;;;;;;;;;20.60;99.90;;;;;;5039193;28;19928;-62
2022/03/04 09:46:22;;;;;;;;;;;20.60;99.90;;;;;;5037425;28;19925;-61
2022/03/04 09:48:50;;;;;;;;;;;20.60;99.90;;;;;;5044919;28;19936;-63
2022/03/04 09:51:19;;;;;;;;;;;20.50;99.90;;;;;;5042033;28;19929;-62
2022/03/04 09:53:46;;;;;;;;;;;20.50;99.90;;;;;;5048817;28;20407;-61
2022/03/04 09:56:14;;;;;;;;;;;20.50;99.90;;;;;;5049901;28;19947;-61
2022/03/04 09:58:41;;;;;;;;;;;20.50;99.90;;;;;;5049230;28;19971;-62
2022/03/04 10:01:09;;;;;;;;;;;20.50;99.90;;;;;;5049934;28;19929;-62
2022/03/04 10:03:39;;;;;;;;;;;20.50;99.90;;;;;;5043988;28;20290;-64
2022/03/04 10:06:06;;;;;;;;;;;20.60;99.90;;;;;;5043634;28;19928;-63
2022/03/04 10:08:37;;;;;;;;;;;20.60;99.90;;;;;;5035433;28;19925;-60
2022/03/04 10:11:04;;;;;;;;;;;20.70;99.90;;;;;;5035299;28;19929;-63
2022/03/04 10:13:52;;;;;;;;;;;20.80;99.90;;;;;;5048575;28;19928;-61
2022/03/04 10:16:24;;;;;;;;;;;20.90;99.90;;;;;;5039588;28;19947;-62
2022/03/04 10:19:10;;;;;;;;;;;21.00;99.90;;;;;;5034794;28;20416;-62
2022/03/04 10:21:56;;;;;;;;;;;21.10;99.90;;;;;;5047030;28;19929;-61
2022/03/04 10:24:42;;;;;;;;;;;21.20;99.80;;;;;;5036931;28;19925;-62
2022/03/04 10:27:13;;;;;;;;;;;21.20;99.70;;;;;;5038282;28;19972;-62
2022/03/04 10:29:42;;;;;;;;;;;21.30;99.60;;;;;;5036275;28;20384;-61
2022/03/04 10:32:15;;;;;;;;;;;21.30;99.50;;;;;;5045021;28;19925;-62
2022/03/04 10:34:49;;;;;;;;;;;21.30;99.60;;;;;;5032229;28;19973;-60
2022/03/04 10:37:18;;;;;;;;;;;21.30;99.60;;;;;;5037318;28;19925;-62
2022/03/04 10:39:56;;;;;;;;;;;21.30;99.60;;;;;;5071142;28;19952;-65
2022/03/04 10:42:43;;;;;;;;;;;21.20;99.60;;;;;;5034947;28;20285;-61
2022/03/04 10:45:15;;;;;;;;;;;21.20;99.70;;;;;;5037321;28;19935;-63
2022/03/04 10:47:46;;;;;;;;;;;21.20;99.70;;;;;;5029562;28;19936;-60
2022/03/04 10:50:13;;;;;;;;;;;21.10;99.70;;;;;;5032950;28;19932;-62
2022/03/04 10:52:47;;;;;;;;;;;21.10;99.80;;;;;;5045189;28;19929;-60
2022/03/04 10:55:24;;;;;;;;;;;21.00;99.90;;;;;;5029838;28;19929;-64
2022/03/04 10:57:52;;;;;;;;;;;21.00;99.90;;;;;;5037689;28;19929;-61
2022/03/04 11:00:22;;;;;;;;;;;20.90;99.90;;;;;;5045573;28;20043;-61
2022/03/04 11:02:51;;;;;;;;;;;20.90;99.90;;;;;;5041401;28;20054;-62
2022/03/04 11:05:19;;;;;;;;;;;20.90;99.90;;;;;;5035758;28;19932;-62
2022/03/04 11:07:46;;;;;;;;;;;20.90;99.90;;;;;;5043980;28;19950;-61
2022/03/04 11:10:14;;;;;;;;;;;20.80;99.90;;;;;;5034839;28;19933;-61
2022/03/04 11:12:42;;;;;;;;;;;20.80;99.90;;;;;;5043387;28;19935;-61
2022/03/04 11:15:11;;;;;;;;;;;20.80;99.90;;;;;;5046621;28;19955;-62
2022/03/04 11:17:39;;;;;;;;;;;20.70;99.90;;;;;;5044284;28;20393;-61
2022/03/04 11:20:07;;;;;;;;;;;20.70;99.90;;;;;;5029964;28;20279;-62
2022/03/04 11:22:37;;;;;;;;;;;20.70;99.90;;;;;;5047746;28;19940;-61
2022/03/04 11:25:05;;;;;;;;;;;20.60;99.90;;;;;;5043899;28;20963;-63
2022/03/04 11:27:37;;;;;;;;;;;20.60;99.90;;;;;;5046847;28;19944;-63
2022/03/04 11:30:05;;;;;;;;;;;20.60;99.90;;;;;;5028189;28;19928;-62
2022/03/04 11:32:32;;;;;;;;;;;20.50;99.90;;;;;;5027610;28;19929;-61
2022/03/04 11:34:59;;;;;;;;;;;20.50;99.90;;;;;;5032735;28;20420;-62
2022/03/04 11:37:30;;;;;;;;;;;20.50;99.90;;;;;;5046423;28;20419;-61
2022/03/04 11:40:03;;;;;;;;;;;20.60;99.90;;;;;;5047463;28;19928;-62
2022/03/04 11:42:37;;;;;;;;;;;20.60;99.90;;;;;;5049380;28;19948;-64
2022/03/04 11:45:07;;;;;;;;;;;20.70;99.90;;;;;;5050385;28;19929;-64
2022/03/04 11:47:38;;;;;;;;;;;20.80;99.90;;;;;;5049888;28;19929;-63
2022/03/04 11:50:24;;;;;;;;;;;20.90;99.90;;;;;;5018321;28;20004;-61
2022/03/04 11:52:51;;;;;;;;;;;21.00;99.90;;;;;;5051001;28;19925;-61
2022/03/04 11:55:22;;;;;;;;;;;21.00;99.90;;;;;;5046431;28;19933;-61
2022/03/04 11:57:57;;;;;;;;;;;21.10;99.90;;;;;;5036054;28;19929;-60
2022/03/04 12:00:25;;;;;;;;;;;21.10;99.90;;;;;;5036190;28;19944;-61
2022/03/04 12:02:56;;;;;;;;;;;21.10;99.90;;;;;;5037240;28;19929;-61
2022/03/04 12:05:28;;;;;;;;;;;21.20;99.90;;;;;;5047326;28;19936;-62
2022/03/04 12:07:55;;;;;;;;;;;21.20;99.90;;;;;;5045274;28;20492;-59
2022/03/04 12:10:25;;;;;;;;;;;21.10;99.90;;;;;;5038357;28;19929;-60
2022/03/04 12:12:58;;;;;;;;;;;21.20;99.90;;;;;;5036394;28;19929;-62
2022/03/04 12:15:26;;;;;;;;;;;21.10;99.90;;;;;;5049323;28;19936;-62
2022/03/04 12:17:54;;;;;;;;;;;21.10;99.90;;;;;;5035931;28;19929;-63
2022/03/04 12:20:27;;;;;;;;;;;21.10;99.90;;;;;;5035934;28;19932;-61
2022/03/04 12:22:56;;;;;;;;;;;21.10;99.90;;;;;;5043238;28;19952;-61
2022/03/04 12:25:42;;;;;;;;;;;21.10;99.90;;;;;;5052032;28;19943;-60
2022/03/04 12:28:13;;;;;;;;;;;21.00;99.90;;;;;;5030542;28;19940;-62
2022/03/04 12:30:40;;;;;;;;;;;21.00;99.90;;;;;;5036016;28;19933;-63
2022/03/04 12:33:07;;;;;;;;;;;21.00;99.90;;;;;;5035667;28;19936;-61
2022/03/04 12:35:35;;;;;;;;;;;21.00;99.90;;;;;;5043257;28;20373;-61
2022/03/04 12:38:02;;;;;;;;;;;21.00;99.90;;;;;;5037155;28;19936;-59
2022/03/04 12:40:29;;;;;;;;;;;20.90;99.90;;;;;;5040014;28;19939;-62
2022/03/04 12:42:56;;;;;;;;;;;20.90;99.90;;;;;;5039275;28;19925;-62
2022/03/04 12:45:26;;;;;;;;;;;20.80;99.90;;;;;;5048647;28;20252;-62
2022/03/04 12:47:56;;;;;;;;;;;20.80;99.90;;;;;;5044135;28;20304;-61
2022/03/04 12:50:32;;;;;;;;;;;20.80;99.90;;;;;;5046680;28;19951;-61
2022/03/04 12:53:16;;;;;;;;;;;20.70;99.90;;;;;;5034739;28;20282;-63
2022/03/04 12:55:50;;;;;;;;;;;20.70;99.90;;;;;;5032758;28;19948;-64
2022/03/04 12:58:32;;;;;;;;;;;20.70;99.90;;;;;;5034378;28;20020;-63
2022/03/04 13:01:02;;;;;;;;;;;20.60;99.90;;;;;;5044857;28;19939;-63
2022/03/04 13:03:31;;;;;;;;;;;20.60;99.90;;;;;;5046502;28;19929;-60
2022/03/04 13:05:58;;;;;;;;;;;20.60;99.90;;;;;;5049563;28;19932;-61
2022/03/04 13:08:26;;;;;;;;;;;20.60;99.90;;;;;;5045693;28;19929;-63
2022/03/04 13:10:54;;;;;;;;;;;20.70;99.90;;;;;;5053068;28;19936;-63
2022/03/04 13:13:22;;;;;;;;;;;20.70;99.90;;;;;;5052246;28;19924;-58
2022/03/04 13:15:51;;;;;;;;;;;20.80;99.90;;;;;;5038517;28;20364;-62
2022/03/04 13:18:20;;;;;;;;;;;21.00;99.90;;;;;;5048472;28;19925;-61
2022/03/04 13:21:04;;;;;;;;;;;21.00;99.90;;;;;;5045381;28;19928;-60
2022/03/04 13:23:31;;;;;;;;;;;21.10;99.90;;;;;;5037295;28;20372;-59
2022/03/04 13:26:09;;;;;;;;;;;21.20;99.90;;;;;;5057645;28;19939;-59
2022/03/04 13:28:57;;;;;;;;;;;21.20;99.90;;;;;;5048162;28;19928;-61
2022/03/04 13:31:43;;;;;;;;;;;21.30;99.80;;;;;;5037040;28;19925;-60
2022/03/04 13:34:14;;;;;;;;;;;21.30;99.80;;;;;;5041696;28;20308;-60
2022/03/04 13:36:47;;;;;;;;;;;21.40;99.80;;;;;;5041612;28;19936;-60
2022/03/04 13:39:19;;;;;;;;;;;21.40;99.70;;;;;;5046721;28;19939;-64
2022/03/04 13:42:05;;;;;;;;;;;21.40;99.70;;;;;;5046439;28;19932;-63
2022/03/04 13:44:33;;;;;;;;;;;21.40;99.70;;;;;;5038559;28;19929;-63
2022/03/04 13:47:04;;;;;;;;;;;21.40;99.70;;;;;;5038769;28;19929;-64
2022/03/04 13:49:41;;;;;;;;;;;21.40;99.70;;;;;;5036218;28;19929;-61
2022/03/04 13:52:08;;;;;;;;;;;21.40;99.70;;;;;;5045366;28;19933;-61
2022/03/04 13:54:48;;;;;;;;;;;21.40;99.70;;;;;;5037736;28;19929;-63
2022/03/04 13:57:26;;;;;;;;;;;21.40;99.70;;;;;;5029225;28;19937;-64
2022/03/04 13:59:57;;;;;;;;;;;21.40;99.70;;;;;;5035084;28;20269;-61
2022/03/04 14:02:26;;;;;;;;;;;21.40;99.70;;;;;;5030280;28;19929;-60
2022/03/04 14:04:54;;;;;;;;;;;21.40;99.70;;;;;;5029611;28;19971;-61
2022/03/04 14:07:22;;;;;;;;;;;21.40;99.80;;;;;;5038003;28;19933;-62
2022/03/04 14:09:55;;;;;;;;;;;21.30;99.90;;;;;;5042691;28;20423;-61
2022/03/04 14:12:22;;;;;;;;;;;21.30;99.90;;;;;;5045283;28;19925;-61
2022/03/04 14:14:50;;;;;;;;;;;21.20;99.90;;;;;;5039306;28;19928;-62
2022/03/04 14:17:17;;;;;;;;;;;21.10;99.90;;;;;;5029552;28;19929;-61
2022/03/04 14:19:44;;;;;;;;;;;21.10;99.90;;;;;;5040353;28;19929;-63
2022/03/04 14:22:11;;;;;;;;;;;21.00;99.90;;;;;;5040712;28;19936;-62
2022/03/04 14:24:38;;;;;;;;;;;21.00;99.90;;;;;;5040125;28;19936;-62